Time;durP1;ratioP1;P1;durP2;ratioP2;P2;SDS_P1;SDS_P2;PMS_P1;PMS_P2;Temp;Humidity;BMP_temperature;BMP_pressure;BME280_temperature;BME280_humidity;BME280_pressure;Samples;Min_cycle;Max_cycle;Signal;HPM_P1;HPM_P2
2022/08/25 00:01:23;;;;;;;13.22;3.95;;;;;;;20.78;95.76;101007.12;1790282;79;25710;-79
2022/08/25 00:03:51;;;;;;;12.37;3.55;;;;;;;20.82;95.99;101008.84;1790357;78;26488;-79
2022/08/25 00:06:19;;;;;;;10.03;3.08;;;;;;;20.87;96.05;101011.63;1795256;79;26006;-79
2022/08/25 00:08:46;;;;;;;13.53;3.87;;;;;;;20.88;96.20;101015.19;1797823;79;25947;-78
2022/08/25 00:11:22;;;;;;;17.10;4.70;;;;;;;20.87;96.24;101011.63;1797036;79;27452;-79
2022/08/25 00:13:54;;;;;;;11.70;3.33;;;;;;;20.88;96.46;101009.22;1771667;80;25829;-78
2022/08/25 00:16:22;;;;;;;11.05;3.30;;;;;;;20.91;96.61;101009.27;1796307;79;25826;-79
2022/08/25 00:18:54;;;;;;;12.68;3.58;;;;;;;20.92;96.68;101010.91;1799023;79;26623;-78
2022/08/25 00:21:22;;;;;;;13.95;3.70;;;;;;;20.92;96.87;101015.83;1775446;79;25550;-78
2022/08/25 00:23:49;;;;;;;9.68;3.12;;;;;;;20.94;97.02;101017.77;1797837;79;27427;-78
2022/08/25 00:26:16;;;;;;;17.57;4.58;;;;;;;20.96;97.04;101010.70;1796268;79;26164;-78
2022/08/25 00:28:44;;;;;;;11.88;2.85;;;;;;;20.98;97.15;101010.75;1797102;79;25710;-78
2022/08/25 00:31:13;;;;;;;11.53;3.12;;;;;;;21.01;97.19;101010.80;1795123;79;26530;-78
2022/08/25 00:33:42;;;;;;;10.10;3.42;;;;;;;21.01;97.32;101017.09;1791010;79;25735;-78
2022/08/25 00:36:11;;;;;;;15.03;3.62;;;;;;;21.03;97.38;101012.78;1798403;79;27498;-78
2022/08/25 00:38:39;;;;;;;14.10;3.45;;;;;;;21.04;97.45;101011.72;1793783;79;25821;-78
2022/08/25 00:41:06;;;;;;;10.03;3.47;;;;;;;21.02;97.52;101006.47;1794275;79;25971;-78
2022/08/25 00:43:41;;;;;;;21.48;3.80;;;;;;;21.02;97.66;101005.66;1794740;79;26529;-78
2022/08/25 00:46:09;;;;;;;10.90;3.40;;;;;;;21.00;97.77;101009.17;1797529;78;25780;-79
2022/08/25 00:48:38;;;;;;;13.00;3.50;;;;;;;20.98;97.98;101001.78;1792185;79;27413;-79
2022/08/25 00:51:07;;;;;;;12.55;3.67;;;;;;;20.95;98.14;101009.07;1796686;79;26325;-79
2022/08/25 00:53:34;;;;;;;11.97;3.40;;;;;;;20.95;98.41;101008.54;1793025;79;25746;-79
2022/08/25 00:56:02;;;;;;;13.03;3.65;;;;;;;20.96;98.49;101010.70;1797015;78;26011;-78
2022/08/25 00:58:31;;;;;;;15.25;3.65;;;;;;;20.97;98.66;101009.13;1793908;79;25698;-79
2022/08/25 01:00:58;;;;;;;10.82;3.42;;;;;;;20.98;98.75;101009.95;1798192;79;28257;-79
2022/08/25 01:03:28;;;;;;;13.60;3.72;;;;;;;21.01;98.83;101005.36;1785991;79;25918;-79
2022/08/25 01:05:55;;;;;;;7.90;3.17;;;;;;;21.04;98.85;101006.27;1756174;80;26483;-79
2022/08/25 01:08:26;;;;;;;12.45;3.92;;;;;;;21.05;98.93;101007.91;1791524;78;25935;-79
2022/08/25 01:10:55;;;;;;;11.55;3.27;;;;;;;21.06;99.06;101010.41;1794503;79;25824;-79
2022/08/25 01:13:33;;;;;;;10.90;3.52;;;;;;;21.04;99.08;101011.16;1793876;79;27494;-78
2022/08/25 01:16:01;;;;;;;13.03;3.37;;;;;;;21.03;99.27;101005.44;1797073;79;25295;-79
2022/08/25 01:18:28;;;;;;;12.23;3.87;;;;;;;20.99;99.37;101008.34;1763931;80;25814;-79
2022/08/25 01:20:57;;;;;;;11.78;3.47;;;;;;;21.00;99.48;101013.26;1741424;80;26069;-79
2022/08/25 01:23:25;;;;;;;10.78;3.72;;;;;;;21.00;99.72;101015.98;1788693;78;25746;-79
2022/08/25 01:26:18;;;;;;;8.73;3.52;;;;;;;21.00;99.76;101011.89;1795011;79;27598;-79
2022/08/25 01:31:34;;;;;;;10.15;3.60;;;;;;;20.97;100.00;101006.92;1781402;78;25828;-79
2022/08/25 01:34:02;;;;;;;14.43;3.92;;;;;;;20.96;100.00;101003.37;1795840;79;25775;-78
2022/08/25 01:36:30;;;;;;;15.50;4.50;;;;;;;20.94;100.00;101002.79;1783757;79;25784;-79
2022/08/25 01:38:57;;;;;;;14.30;4.30;;;;;;;20.95;100.00;100999.53;1767406;80;27608;-79
2022/08/25 01:41:41;;;;;;;9.65;3.90;;;;;;;20.95;100.00;100999.53;1791879;79;25356;-78
2022/08/25 01:44:08;;;;;;;13.50;3.85;;;;;;;20.95;100.00;100996.81;1794289;78;25846;-79
2022/08/25 01:46:34;;;;;;;13.18;3.92;;;;;;;20.95;100.00;100998.17;1764730;80;25709;-79
2022/08/25 01:49:02;;;;;;;17.50;3.92;;;;;;;20.95;100.00;101002.26;1762427;80;25488;-79
2022/08/25 01:51:34;;;;;;;12.13;4.28;;;;;;;20.94;100.00;101008.77;1790243;79;27499;-79
2022/08/25 01:54:00;;;;;;;16.90;4.37;;;;;;;20.95;100.00;101003.09;1770808;79;26510;-79
2022/08/25 01:56:26;;;;;;;10.20;4.15;;;;;;;20.97;100.00;100991.94;1791922;78;25804;-78
2022/08/25 01:58:53;;;;;;;12.05;4.00;;;;;;;20.98;100.00;101000.42;1793937;79;25904;-79
2022/08/25 02:01:22;;;;;;;12.68;4.50;;;;;;;20.98;100.00;100996.34;1791669;79;25775;-79
2022/08/25 02:03:53;;;;;;;14.47;4.10;;;;;;;20.98;100.00;100991.69;1787551;79;27440;-79
2022/08/25 02:06:33;;;;;;;14.18;4.80;;;;;;;20.99;100.00;100996.08;1785512;79;25808;-79
2022/08/25 02:09:08;;;;;;;14.13;5.33;;;;;;;20.98;100.00;100990.33;1765160;80;26502;-79
2022/08/25 02:11:38;;;;;;;14.60;4.25;;;;;;;20.99;100.00;100984.35;1740983;81;26466;-79
2022/08/25 02:14:08;;;;;;;16.80;4.42;;;;;;;21.01;100.00;100990.38;1790437;79;26013;-79
2022/08/25 02:16:38;;;;;;;9.50;4.25;;;;;;;21.00;100.00;100981.38;1769200;80;27459;-79
2022/08/25 02:19:09;;;;;;;15.08;4.47;;;;;;;20.98;100.00;100979.99;1763732;80;25864;-79
2022/08/25 02:21:35;;;;;;;;;;;;;;;20.96;100.00;100978.02;1741560;81;25473;-79
2022/08/25 02:24:02;;;;;;;15.38;4.42;;;;;;;20.97;100.00;100975.08;1793224;79;25777;-78
2022/08/25 02:26:30;;;;;;;12.40;4.65;;;;;;;20.94;100.00;100967.91;1783432;79;25724;-79
2022/08/25 02:28:56;;;;;;;11.97;4.17;;;;;;;20.95;100.00;100971.77;1762584;80;27514;-79
2022/08/25 02:31:24;;;;;;;15.53;5.22;;;;;;;20.95;100.00;100970.94;1781291;78;25922;-79
2022/08/25 02:33:52;;;;;;;16.05;5.12;;;;;;;20.94;100.00;100971.47;1747330;80;25548;-79
2022/08/25 02:36:19;;;;;;;14.35;4.08;;;;;;;20.95;100.00;100971.77;1745108;82;25827;-79
2022/08/25 02:38:45;;;;;;;8.88;4.58;;;;;;;20.96;100.00;100973.94;1745939;81;25721;-79
2022/08/25 02:41:22;;;;;;;16.32;4.42;;;;;;;20.96;100.00;100970.69;1744684;81;27627;-79
2022/08/25 02:43:50;;;;;;;10.40;5.05;;;;;;;20.97;100.00;100970.16;1746176;82;25795;-78
2022/08/25 02:46:21;;;;;;;18.75;5.47;;;;;;;20.95;100.00;100970.41;1733259;79;26425;-78
2022/08/25 02:48:47;;;;;;;;;;;;;;;20.97;100.00;100973.71;1748168;81;25775;-78
2022/08/25 02:51:14;;;;;;;15.95;4.47;;;;;;;20.98;100.00;100965.81;1744784;81;25776;-79
2022/08/25 02:53:44;;;;;;;14.73;4.75;;;;;;;20.98;100.00;100971.27;1745306;82;28021;-78
2022/08/25 02:56:11;;;;;;;13.22;5.75;;;;;;;20.96;100.00;100968.48;1745633;81;25809;-78
2022/08/25 02:58:38;;;;;;;12.47;5.05;;;;;;;20.96;100.00;100967.96;1745365;81;26489;-78
2022/08/25 03:01:06;;;;;;;16.77;5.03;;;;;;;20.95;100.00;100960.88;1746091;81;26637;-78
2022/08/25 03:03:33;;;;;;;12.15;4.72;;;;;;;20.96;100.00;100965.77;1745563;81;25789;-78
2022/08/25 03:06:00;;;;;;;19.98;5.30;;;;;;;20.94;100.00;100966.02;1745283;81;27458;-78
2022/08/25 03:08:26;;;;;;;14.38;5.00;;;;;;;20.94;100.00;100971.47;1745588;81;25536;-78
2022/08/25 03:10:53;;;;;;;11.88;4.80;;;;;;;20.97;100.00;100970.16;1745521;79;25832;-78
2022/08/25 03:13:19;;;;;;;12.15;4.65;;;;;;;20.98;100.00;100969.10;1745157;81;26511;-78
2022/08/25 03:15:45;;;;;;;12.88;4.85;;;;;;;21.00;100.00;100966.95;1743350;81;25955;-79
2022/08/25 03:18:12;;;;;;;11.12;4.95;;;;;;;20.98;100.00;100957.65;1744113;81;27453;-78
2022/08/25 03:20:38;;;;;;;14.07;5.75;;;;;;;20.98;100.00;100964.45;1745004;81;25909;-78
2022/08/25 03:23:06;;;;;;;15.20;5.53;;;;;;;20.99;100.00;100953.86;1716463;82;25979;-78
2022/08/25 03:28:19;;;;;;;12.88;5.03;;;;;;;20.98;100.00;100948.67;1711767;83;25847;-78
2022/08/25 03:30:45;;;;;;;11.05;5.60;;;;;;;20.95;100.00;100954.07;1745317;81;27479;-79
2022/08/25 03:33:12;;;;;;;21.77;6.10;;;;;;;20.92;100.00;100946.38;1744795;81;25881;-78
2022/08/25 03:35:39;;;;;;;15.32;5.47;;;;;;;20.93;100.00;100947.22;1720163;82;26349;-78
2022/08/25 03:38:06;;;;;;;16.73;5.97;;;;;;;20.93;100.00;100946.69;1703955;83;25952;-78
2022/08/25 03:40:33;;;;;;;16.62;5.47;;;;;;;20.96;100.00;100950.78;1713253;83;25888;-78
2022/08/25 03:42:59;;;;;;;12.07;5.90;;;;;;;20.97;100.00;100953.81;1714020;83;27541;-78
2022/08/25 03:45:26;;;;;;;8.85;5.92;;;;;;;20.99;100.00;100945.69;1746883;81;25771;-78
2022/08/25 03:47:52;;;;;;;16.85;5.53;;;;;;;21.01;100.00;100950.36;1744479;81;25796;-79
2022/08/25 03:50:22;;;;;;;15.13;5.90;;;;;;;21.01;100.00;100948.16;1746057;81;25942;-78
2022/08/25 03:52:54;;;;;;;18.17;6.15;;;;;;;21.01;100.00;100950.36;1717156;83;25760;-79
2022/08/25 03:55:23;;;;;;;14.18;5.70;;;;;;;21.04;100.00;100948.52;1709664;83;28319;-78
2022/08/25 03:57:51;;;;;;;16.52;6.30;;;;;;;21.06;100.00;100950.48;1747045;81;26510;-78
2022/08/25 04:00:18;;;;;;;15.90;5.95;;;;;;;21.07;100.00;100956.73;1718453;82;25783;-78
2022/08/25 04:02:45;;;;;;;16.05;5.97;;;;;;;21.09;100.00;100960.87;1708485;83;25851;-78
2022/08/25 04:05:12;;;;;;;17.37;6.70;;;;;;;21.12;100.00;100963.11;1743640;81;25915;-78
2022/08/25 04:07:39;;;;;;;18.20;6.55;;;;;;;21.14;100.00;100962.33;1744074;81;28267;-78
2022/08/25 04:10:08;;;;;;;20.37;6.12;;;;;;;21.15;100.00;100969.97;1678969;83;25777;-78
2022/08/25 04:12:36;;;;;;;20.20;6.13;;;;;;;21.17;100.00;100974.08;1680885;84;25808;-78
2022/08/25 04:15:05;;;;;;;20.77;6.75;;;;;;;21.17;100.00;100973.27;1741496;81;26698;-79
2022/08/25 04:17:32;;;;;;;15.10;6.62;;;;;;;21.19;100.00;100971.12;1746974;81;26025;-79
2022/08/25 04:20:00;;;;;;;14.20;5.87;;;;;;;21.19;100.00;100967.04;1742133;81;28251;-78
2022/08/25 04:22:27;;;;;;;15.43;6.85;;;;;;;21.20;100.00;100973.59;1734632;81;25773;-79
2022/08/25 04:24:53;;;;;;;12.93;6.22;;;;;;;21.21;100.00;100972.50;1740417;81;25586;-78
2022/08/25 04:27:19;;;;;;;17.73;6.10;;;;;;;21.22;100.00;100967.36;1745555;81;26541;-78
2022/08/25 04:29:46;;;;;;;14.73;6.00;;;;;;;21.24;100.00;100961.66;1743982;81;25863;-78
2022/08/25 04:32:12;;;;;;;14.75;6.58;;;;;;;21.27;100.00;100964.73;1744299;81;27543;-78
2022/08/25 04:34:39;;;;;;;12.10;6.90;;;;;;;21.29;100.00;100959.86;1712450;83;25672;-78
2022/08/25 04:37:06;;;;;;;17.35;6.47;;;;;;;21.31;100.00;100957.70;1745644;81;25854;-79
2022/08/25 04:39:33;;;;;;;14.10;6.33;;;;;;;21.32;100.00;100962.06;1744871;81;25849;-78
2022/08/25 04:42:01;;;;;;;20.92;6.83;;;;;;;21.34;100.00;100966.73;1746008;81;26417;-78
2022/08/25 04:44:29;;;;;;;18.80;7.10;;;;;;;21.33;100.00;100965.09;1746476;81;27925;-78
2022/08/25 04:46:55;;;;;;;20.48;6.95;;;;;;;21.35;100.00;100964.30;1745577;81;26212;-78
2022/08/25 04:49:22;;;;;;;18.30;6.30;;;;;;;21.36;100.00;100970.03;1718880;81;26021;-78
2022/08/25 04:51:50;;;;;;;16.00;7.05;;;;;;;21.40;100.00;100971.74;1744978;81;25773;-79
2022/08/25 04:54:20;;;;;;;18.32;7.05;;;;;;;21.42;100.00;100970.42;1745618;81;25795;-78
2022/08/25 04:56:46;;;;;;;25.48;6.55;;;;;;;21.44;100.00;100970.16;1717036;82;28573;-79
2022/08/25 04:59:15;;;;;;;18.05;6.95;;;;;;;21.44;100.00;100974.25;1743323;81;25916;-78
2022/08/25 05:01:45;;;;;;;15.75;6.33;;;;;;;21.45;100.00;100975.36;1741193;81;25761;-78
2022/08/25 05:04:15;;;;;;;19.65;6.70;;;;;;;21.48;100.00;100980.86;1742893;81;26667;-79
2022/08/25 05:06:43;;;;;;;21.43;7.40;;;;;;;21.51;100.00;100985.83;1741159;81;25714;-78
2022/08/25 05:09:10;;;;;;;19.77;6.85;;;;;;;21.55;100.00;100988.86;1742102;81;27442;-78
2022/08/25 05:11:36;;;;;;;16.17;6.45;;;;;;;21.56;100.00;100985.87;1737496;81;25741;-78
2022/08/25 05:14:04;;;;;;;19.77;7.00;;;;;;;21.59;100.00;100984.56;1718063;81;25921;-78
2022/08/25 05:16:30;;;;;;;17.48;6.83;;;;;;;21.61;100.00;100981.05;1738777;81;25818;-79
2022/08/25 05:18:57;;;;;;;16.95;6.17;;;;;;;21.61;100.00;100987.33;1738928;81;26400;-78
2022/08/25 05:21:26;;;;;;;16.50;6.70;;;;;;;21.63;100.00;100982.45;1740356;81;27517;-79
2022/08/25 05:23:58;;;;;;;24.43;7.70;;;;;;;21.66;100.00;100981.97;1743287;81;26396;-78
2022/08/25 05:26:29;;;;;;;17.12;7.05;;;;;;;21.69;100.00;100975.99;1736676;81;26019;-79
2022/08/25 05:28:57;;;;;;;15.53;6.83;;;;;;;21.73;100.00;100969.48;1741794;81;26573;-79
2022/08/25 05:31:25;;;;;;;18.92;6.97;;;;;;;21.76;100.00;100974.45;1739585;81;25731;-79
2022/08/25 05:33:52;;;;;;;18.00;6.58;;;;;;;21.77;100.00;100974.76;1739029;81;28261;-78
2022/08/25 05:36:21;;;;;;;13.00;6.17;;;;;;;21.77;100.00;100976.92;1739700;82;25887;-78
2022/08/25 05:38:47;;;;;;;20.90;7.87;;;;;;;21.80;100.00;100974.23;1741377;81;25832;-79
2022/08/25 05:41:18;;;;;;;15.45;6.45;;;;;;;21.82;100.00;100971.58;1740756;81;26546;-79
2022/08/25 05:43:47;;;;;;;17.65;6.50;;;;;;;21.85;100.00;100969.73;1739501;81;25788;-79
2022/08/25 05:46:15;;;;;;;20.75;6.72;;;;;;;21.90;100.00;100968.95;1740247;81;27673;-77
2022/08/25 05:48:42;;;;;;;15.93;6.90;;;;;;;21.96;100.00;100968.77;1739568;81;26001;-77
2022/08/25 05:51:10;;;;;;;18.50;7.10;;;;;;;21.98;100.00;100967.97;1742809;79;25744;-77
2022/08/25 05:53:41;;;;;;;22.20;7.50;;;;;;;22.02;100.00;100966.95;1739339;81;26563;-78
2022/08/25 05:56:09;;;;;;;19.73;7.17;;;;;;;22.06;100.00;100964.83;1739086;81;26398;-77
2022/08/25 05:58:37;;;;;;;15.38;6.58;;;;;;;22.14;100.00;100961.65;1744134;81;27463;-79
2022/08/25 06:03:52;;;;;;;18.30;7.37;;;;;;;22.21;100.00;100965.55;1728630;81;26627;-79
2022/08/25 06:06:21;;;;;;;26.97;8.03;;;;;;;22.26;100.00;100965.06;1744986;81;25824;-79
2022/08/25 06:08:47;;;;;;;33.02;7.75;;;;;;;22.30;100.00;100965.93;1742354;81;26196;-80
2022/08/25 06:11:15;;;;;;;21.00;7.78;;;;;;;22.34;100.00;100968.44;1735251;81;27466;-78
2022/08/25 06:13:42;;;;;;;21.40;8.05;;;;;;;22.37;100.00;100970.11;1740052;81;25896;-78
2022/08/25 06:16:08;;;;;;;17.15;6.72;;;;;;;22.38;100.00;100969.57;1739889;81;25720;-78
2022/08/25 06:18:34;;;;;;;20.15;7.37;;;;;;;22.39;100.00;100968.50;1739670;81;25755;-78
2022/08/25 06:21:12;;;;;;;19.75;7.05;;;;;;;22.41;100.00;100975.33;1741235;82;25720;-77
2022/08/25 06:23:39;;;;;;;16.97;6.85;;;;;;;22.40;100.00;100975.06;1738156;81;28269;-79
2022/08/25 06:26:11;;;;;;;22.25;7.78;;;;;;;22.43;100.00;100971.01;1740755;81;26508;-79
2022/08/25 06:28:37;;;;;;;21.40;7.92;;;;;;;22.48;100.00;100977.34;1707432;83;26426;-79
2022/08/25 06:31:04;;;;;;;21.77;6.33;;;;;;;22.50;100.00;100977.91;1740074;82;26551;-80
2022/08/25 06:33:30;;;;;;;27.00;7.78;;;;;;;22.52;100.00;100977.11;1740924;81;25878;-79
2022/08/25 06:35:58;;;;;;;28.95;7.40;;;;;;;22.55;100.00;100975.23;1740395;82;28254;-80
2022/08/25 06:38:25;;;;;;;23.22;7.53;;;;;;;22.60;100.00;100979.97;1741165;81;25779;-80
2022/08/25 06:40:53;;;;;;;16.85;6.95;;;;;;;22.65;100.00;100980.00;1739198;81;25694;-80
2022/08/25 06:43:20;;;;;;;18.32;6.95;;;;;;;22.68;100.00;100977.60;1741891;81;25954;-79
2022/08/25 06:45:47;;;;;;;23.07;7.92;;;;;;;22.70;100.00;100982.27;1740757;81;25782;-78
2022/08/25 06:48:14;;;;;;;22.80;6.95;;;;;;;22.76;100.00;100983.13;1740824;81;26855;-78
2022/08/25 06:50:42;;;;;;;20.92;7.00;;;;;;;22.82;100.00;100991.12;1740108;82;25699;-77
2022/08/25 06:53:08;;;;;;;19.42;7.45;;;;;;;22.89;100.00;100988.19;1741512;81;25874;-77
2022/08/25 06:55:35;;;;;;;23.18;7.60;;;;;;;22.99;100.00;100987.74;1740780;81;25828;-78
2022/08/25 06:58:03;;;;;;;24.87;7.33;;;;;;;23.12;100.00;100986.48;1741021;81;25560;-77
2022/08/25 07:00:30;;;;;;;20.02;6.83;;;;;;;23.22;100.00;100985.77;1740920;81;27518;-78
2022/08/25 07:02:57;;;;;;;18.35;6.90;;;;;;;23.30;100.00;100979.28;1740351;81;25844;-78
2022/08/25 07:05:24;;;;;;;26.90;7.53;;;;;;;23.36;100.00;100980.99;1741105;79;25759;-78
2022/08/25 07:07:50;;;;;;;17.73;6.35;;;;;;;23.40;100.00;100987.59;1744155;81;26523;-78
2022/08/25 07:10:17;;;;;;;19.27;7.12;;;;;;;23.43;100.00;100990.34;1745608;81;26719;-78
2022/08/25 07:12:43;;;;;;;19.45;7.30;;;;;;;23.42;99.43;100983.21;1735896;81;27557;-78
2022/08/25 07:15:10;;;;;;;22.77;7.15;;;;;;;23.46;99.87;100984.36;1741832;81;25583;-78
2022/08/25 07:17:36;;;;;;;19.50;6.45;;;;;;;23.51;99.53;100990.68;1741158;82;25849;-78
2022/08/25 07:20:04;;;;;;;23.60;7.22;;;;;;;23.54;99.04;100990.70;1739728;81;25785;-78
2022/08/25 07:22:31;;;;;;;18.48;6.83;;;;;;;23.59;99.37;100998.39;1741720;81;25914;-78
2022/08/25 07:24:58;;;;;;;19.02;6.72;;;;;;;23.64;99.46;100995.70;1740125;82;28263;-78
2022/08/25 07:27:25;;;;;;;22.48;6.85;;;;;;;23.70;99.49;100997.91;1741125;82;26483;-77
2022/08/25 07:29:52;;;;;;;20.82;8.03;;;;;;;23.76;99.14;101001.80;1741235;81;25844;-77
2022/08/25 07:32:19;;;;;;;20.35;6.78;;;;;;;23.78;98.83;101011.09;1742519;81;26567;-77
2022/08/25 07:37:30;;;;;;;20.05;7.70;;;;;;;23.88;98.67;101007.61;1738126;81;28358;-79
2022/08/25 07:39:58;;;;;;;22.32;6.65;;;;;;;23.95;98.65;101008.21;1740659;81;25690;-79
2022/08/25 07:42:26;;;;;;;23.02;6.35;;;;;;;23.99;97.86;101013.43;1742537;81;26431;-79
2022/08/25 07:44:52;;;;;;;26.40;7.85;;;;;;;24.01;97.95;101016.72;1741296;79;26660;-79
2022/08/25 07:47:21;;;;;;;23.05;7.55;;;;;;;24.09;98.08;101012.98;1741862;81;25766;-79
2022/08/25 07:49:47;;;;;;;20.12;6.78;;;;;;;24.19;98.58;101013.02;1743854;81;27588;-80
2022/08/25 07:52:13;;;;;;;21.33;7.10;;;;;;;24.32;98.28;101010.34;1746204;81;25841;-80
2022/08/25 07:54:40;;;;;;;20.25;6.45;;;;;;;24.43;97.73;101015.60;1740397;81;25911;-80
2022/08/25 07:57:08;;;;;;;20.23;7.10;;;;;;;24.50;96.57;101013.98;1741337;79;25860;-80
2022/08/25 07:59:41;;;;;;;19.32;6.85;;;;;;;24.56;96.32;101016.18;1741869;81;25721;-80
2022/08/25 08:02:10;;;;;;;25.82;7.53;;;;;;;24.62;96.75;101018.67;1742248;82;27504;-80
2022/08/25 08:04:36;;;;;;;29.30;6.90;;;;;;;24.64;95.20;101016.48;1742191;81;25737;-80
2022/08/25 08:07:04;;;;;;;21.55;7.03;;;;;;;24.61;94.62;101010.73;1742028;82;26643;-80
2022/08/25 08:09:30;;;;;;;24.98;7.12;;;;;;;24.60;94.96;101016.75;1742654;81;26564;-79
2022/08/25 08:11:57;;;;;;;21.57;6.95;;;;;;;24.61;94.34;101010.73;1741025;81;25286;-79
2022/08/25 08:14:23;;;;;;;22.13;7.08;;;;;;;24.62;93.75;101008.25;1742782;81;28238;-80
2022/08/25 08:16:50;;;;;;;20.00;7.47;;;;;;;24.64;93.93;101008.80;1744733;81;25799;-79
2022/08/25 08:19:16;;;;;;;18.95;6.55;;;;;;;24.74;94.53;101006.98;1745887;81;25772;-80
2022/08/25 08:21:43;;;;;;;24.75;7.22;;;;;;;24.87;94.25;101002.89;1745578;80;25771;-80
2022/08/25 08:24:09;;;;;;;31.82;7.00;;;;;;;24.97;94.33;101007.02;1742086;81;26102;-80
2022/08/25 08:26:36;;;;;;;22.70;8.25;;;;;;;25.05;93.82;101005.93;1742141;82;28610;-80
2022/08/25 08:29:02;;;;;;;29.10;7.58;;;;;;;25.13;93.36;100999.90;1741532;81;25780;-80
2022/08/25 08:31:29;;;;;;;17.52;6.50;;;;;;;25.16;92.98;100999.36;1744934;81;25739;-79
2022/08/25 08:33:56;;;;;;;21.15;7.17;;;;;;;25.21;92.75;100997.18;1742184;80;26583;-79
2022/08/25 08:36:24;;;;;;;24.87;7.53;;;;;;;25.26;92.42;100994.42;1743490;81;25956;-80
2022/08/25 08:38:51;;;;;;;26.90;7.42;;;;;;;25.36;92.35;101004.04;1740570;81;28245;-78
2022/08/25 08:44:48;;;;;;;27.90;8.15;;;;;;;25.43;92.15;100995.00;1737554;82;26480;-79
2022/08/25 08:48:03;;;;;;;22.02;7.90;;;;;;;25.49;90.37;100998.00;1697022;83;26402;-79
2022/08/25 08:50:52;;;;;;;23.07;7.65;;;;;;;25.48;90.02;100992.80;1729058;81;25889;-79
2022/08/25 08:53:35;;;;;;;22.73;7.60;;;;;;;25.52;90.27;100992.52;1745710;82;27477;-79
2022/08/25 08:56:08;;;;;;;29.82;7.90;;;;;;;25.58;89.91;100994.98;1722712;82;25739;-79
2022/08/25 08:58:49;;;;;;;23.00;6.58;;;;;;;25.65;90.16;100998.28;1744047;81;26507;-79
2022/08/25 09:01:29;;;;;;;25.27;6.87;;;;;;;25.75;90.22;100999.63;1742698;82;26401;-79
2022/08/25 09:04:35;;;;;;;16.23;6.95;;;;;;;25.85;89.90;100997.42;1714222;82;26259;-78
2022/08/25 09:07:07;;;;;;;24.95;7.15;;;;;;;25.93;89.42;100987.24;1735238;82;26895;-79
2022/08/25 09:09:35;;;;;;;21.05;7.40;;;;;;;26.03;89.04;100984.46;1724279;82;25784;-79
2022/08/25 09:12:12;;;;;;;21.68;7.12;;;;;;;26.11;88.85;100990.77;1697962;83;25304;-80
2022/08/25 09:15:13;;;;;;;27.35;7.20;;;;;;;26.15;88.21;100985.56;1743404;82;25825;-79
2022/08/25 09:17:57;;;;;;;18.30;7.08;;;;;;;26.21;88.10;100991.30;1701217;83;26219;-80
2022/08/25 09:20:50;;;;;;;14.53;6.62;;;;;;;26.19;86.57;100988.84;1692924;84;28268;-79
2022/08/25 09:23:30;;;;;;;21.77;6.97;;;;;;;26.25;86.38;100990.47;1692432;84;25974;-79
2022/08/25 09:26:15;;;;;;;;;;;;;;;26.26;86.60;100998.95;1694676;84;25880;-80
2022/08/25 09:29:02;;;;;;;16.23;6.37;;;;;;;26.33;86.58;100994.54;1695850;83;26625;-79
2022/08/25 09:31:37;;;;;;;24.20;7.33;;;;;;;26.34;85.86;100996.20;1673437;84;43197;-79
2022/08/25 09:34:11;;;;;;;17.73;7.15;;;;;;;26.32;85.26;100992.91;1695413;84;27453;-79
2022/08/25 09:36:38;;;;;;;20.05;6.70;;;;;;;26.30;85.05;100992.38;1685375;84;25877;-79
2022/08/25 09:39:06;;;;;;;26.73;7.03;;;;;;;26.29;84.82;100992.09;1746746;82;25794;-79
2022/08/25 09:41:49;;;;;;;26.27;7.62;;;;;;;26.33;84.95;100982.18;1735678;82;26477;-79
2022/08/25 09:44:24;;;;;;;29.32;7.40;;;;;;;26.40;85.12;100984.91;1744814;82;25826;-79
2022/08/25 09:47:01;;;;;;;22.98;9.03;;;;;;;26.47;84.88;100983.23;1716474;81;27474;-79
2022/08/25 09:49:41;;;;;;;29.25;8.20;;;;;;;26.51;84.16;100974.69;1696785;84;25846;-79
2022/08/25 09:52:37;;;;;;;21.00;8.18;;;;;;;26.54;84.64;100976.30;1677374;84;25976;-79
2022/08/25 09:55:18;;;;;;;25.57;8.43;;;;;;;26.63;84.44;100977.91;1694797;84;25889;-79
2022/08/25 09:57:49;;;;;;;24.18;7.75;;;;;;;26.73;84.51;100974.58;1695730;84;25841;-79
2022/08/25 10:00:21;;;;;;;25.05;6.83;;;;;;;26.85;84.97;100972.87;1691997;84;27434;-79
2022/08/25 10:03:12;;;;;;;24.37;7.53;;;;;;;26.93;83.79;100961.80;1699815;83;25851;-79
2022/08/25 10:05:50;;;;;;;27.27;7.58;;;;;;;27.00;83.45;100964.51;1714758;83;26554;-79
2022/08/25 10:08:36;;;;;;;22.80;7.00;;;;;;;27.07;83.18;100957.31;1743687;81;25830;-79
2022/08/25 10:11:14;;;;;;;19.10;7.50;;;;;;;27.14;82.74;100952.28;1719291;81;25804;-79
2022/08/25 10:13:47;;;;;;;21.68;7.08;;;;;;;27.18;82.40;100945.92;1749272;81;27474;-79
2022/08/25 10:16:27;;;;;;;22.22;7.08;;;;;;;27.23;81.99;100948.64;1726291;82;25766;-79
2022/08/25 10:19:13;;;;;;;22.95;6.62;;;;;;;27.28;82.60;100946.41;1697538;83;25610;-79
2022/08/25 10:21:42;;;;;;;22.52;6.92;;;;;;;27.37;82.60;100942.75;1730008;82;25816;-79
2022/08/25 10:24:11;;;;;;;21.55;7.15;;;;;;;27.47;81.40;100943.23;1742671;81;25772;-79
2022/08/25 10:27:13;;;;;;;28.12;7.80;;;;;;;27.55;81.68;100942.59;1742299;81;27474;-79
2022/08/25 10:30:18;;;;;;;24.85;7.30;;;;;;;27.64;80.58;100940.02;1739355;81;25788;-79
2022/08/25 10:33:21;;;;;;;23.98;8.93;;;;;;;27.70;80.19;100937.47;1739367;81;25883;-79
2022/08/25 10:36:08;;;;;;;24.07;7.25;;;;;;;27.76;78.94;100934.38;1741688;81;25777;-79
2022/08/25 10:38:52;;;;;;;23.70;6.80;;;;;;;27.82;78.51;100927.69;1737960;81;25915;-79
2022/08/25 10:41:56;;;;;;;26.10;6.58;;;;;;;27.88;77.74;100933.43;1743031;82;27411;-79
2022/08/25 10:48:18;;;;;;;26.87;6.85;;;;;;;28.03;77.11;100921.44;1738568;81;25766;-79
2022/08/25 10:51:08;;;;;;;18.40;6.35;;;;;;;28.10;77.66;100923.28;1739608;82;26569;-80
2022/08/25 10:54:08;;;;;;;18.60;7.37;;;;;;;28.17;76.53;100914.91;1740162;82;25805;-79
2022/08/25 10:56:49;;;;;;;21.52;7.40;;;;;;;28.36;76.44;100909.41;1742196;79;28440;-79
2022/08/25 10:59:27;;;;;;;23.02;6.90;;;;;;;28.36;76.44;100909.41;1744755;81;25871;-79
2022/08/25 11:02:30;;;;;;;28.23;7.25;;;;;;;28.43;75.10;100904.91;1736012;81;25812;-79
2022/08/25 11:05:08;;;;;;;18.27;6.78;;;;;;;28.48;75.11;100897.95;1742235;82;25733;-79
2022/08/25 11:07:47;;;;;;;18.50;6.00;;;;;;;28.53;74.27;100897.89;1741089;81;26337;-80
2022/08/25 11:10:25;;;;;;;18.98;6.83;;;;;;;28.56;73.34;100882.13;1743409;79;27629;-79
2022/08/25 11:12:56;;;;;;;24.63;6.65;;;;;;;28.62;74.36;100880.40;1736664;81;25781;-79
2022/08/25 11:15:34;;;;;;;26.77;7.10;;;;;;;28.69;73.68;100884.98;1743873;81;25354;-79
2022/08/25 11:18:06;;;;;;;23.67;7.75;;;;;;;28.76;73.56;100878.50;1742101;81;26560;-80
2022/08/25 11:21:04;;;;;;;21.45;7.30;;;;;;;28.78;72.79;100874.09;1741697;81;25265;-79
2022/08/25 11:23:54;;;;;;;20.52;7.58;;;;;;;28.80;72.74;100871.84;1738383;81;27541;-79
2022/08/25 11:26:28;;;;;;;33.05;7.30;;;;;;;28.83;72.11;100871.23;1743563;81;26063;-79
2022/08/25 11:29:11;;;;;;;17.45;6.87;;;;;;;28.88;72.30;100865.09;1743768;81;25286;-77
2022/08/25 11:31:43;;;;;;;20.88;7.25;;;;;;;28.93;71.07;100867.73;1738003;81;26309;-77
2022/08/25 11:34:15;;;;;;;23.05;7.50;;;;;;;28.95;70.96;100857.25;1741370;79;25546;-79
2022/08/25 11:36:59;;;;;;;25.57;7.25;;;;;;;28.99;70.58;100857.45;1742392;82;28312;-79
2022/08/25 11:39:57;;;;;;;20.95;6.47;;;;;;;29.05;69.85;100860.37;1744103;81;25795;-79
2022/08/25 11:42:47;;;;;;;29.92;7.10;;;;;;;29.09;70.30;100860.02;1743885;82;26131;-79
2022/08/25 11:45:52;;;;;;;20.27;7.40;;;;;;;29.16;69.89;100858.28;1743891;81;26730;-79
2022/08/25 11:48:58;;;;;;;19.15;6.45;;;;;;;29.20;68.93;100860.14;1741980;79;25918;-79
2022/08/25 11:51:32;;;;;;;19.15;6.00;;;;;;;29.26;68.02;100857.53;1737719;81;28304;-79
2022/08/25 11:54:10;;;;;;;22.45;7.62;;;;;;;29.31;65.94;100854.70;1743676;81;25864;-80